FLIGHT INFORMATION
Saudia

SVA123

At Arrival Gate

KPAE
 KSFO
DATE: 2018-11-07
GATE:  -
GATE DEPARTURE: 21:19
TAKEOFF: 21:21
DATE: 2018-11-07
GATE:  -
LANDING: 23:16
GATE ARRIVAL: 23:19
FLIGHT DATA
Crew: -HIDDEN-
Speed: 513 kts Altitude: 41000 ft
Stage Length: 618 nm
Route: SEA LMT RBL
Block Time: 2 Flight Time: 1.9
Fuel Used: 43379 LB
TRACK DATA
50000 FT1000 KTAltitudeSpeed
AIRCRAFT INFORMATION
Aircraft Type: B748F
Registration: HZ-AI3
SELCAL:  MSN/LN: 37562 / 1429
Operator: SAUDIA
Flights: 2 Block Time: 7.4 Flight Time: 7.1
Fuel Used: 150520 LB
  • DEPARTURE INFORMATION
    Date: 2018-11-07
    Airport: KPAE
    Gate:  -
    Gate Departure: 21:19
    Takeoff: 21:21
    ARRIVAL INFORMATION
    Date: 2018-11-07
    Airport: KSFO
    Gate:  -
    Landing: 23:16
    Gate Arrival: 23:19
  • FLIGHT DATA
    Crew: -HIDDEN-
    Speed: 513 kts Altitude: 41000 ft
    Stage Length: 334 nm
    Route: SEA LMT RBL
    Block Time: 2 Flight Time: 1.9
    Fuel Used: 43379 LB
  • AIRCRAFT INFORMATION
    Aircraft Type: B748F
    Registration: HZ-AI3
    SELCAL:  MSN/LN: 37562 / 1429
    Operator: Saudia
    Flights: 2 Block Time: 7.4 Flight Time: 7.1
    Fuel Used: 150520 LB

DATALINK LOG | Newest first | Current as of: 2020-07-13 21:02:51
LABEL ID SEQUENCE CONTENT Dn/Up
QD194823:19 14.4▼ Dn
QC121423:12▼ Dn
2U2412KSFO 071556Z 00000KT 10SM FEW200 13/09 A3005 RMK AO2 SLP174 T01280089 $▲ Up
2S1407KSFO▼ Dn
GA2310ADVANCED GATE ASSIGNMENTS NOT YET AVAILABLE AT THIS AIRPORT▲ Up
GR1350KSFO▼ Dn
461253/OV RBL /TM 2212 /FL410 /TP B748 /TA -25 /WV 280/65 /RM NICE VIEW▼ Dn
2U3250KSFO 071456Z 00000KT 10SM FEW200 11/08 A3002 RMK AO2 SLP167 T01060078 53009 $▲ Up
2S2825KSFO▼ Dn
QB170621:17▼ Dn
QA155021:15 57.1▼ Dn
QA073221:07 58▼ Dn
2U5637DATA SERVICE NOT RESPONDING▲ Up
2S5352KSFO▼ Dn


AIRCRAFT HISTORY
FLIGHT DATE FLIGHT NUMBER ORIGIN DESTINATION ROUTE BLOCK TIME FLIGHT TIME FUEL USED (LB) PILOT
2018-12-29SVA519KSFO PHNL BASSL DERVL5.25.1107141Steven Perry
2018-11-07SVA123KPAE KSFO SEA LMT RBL21.943379-HIDDEN-